createdAt,value
2022-08-03T00:00:31.626Z,1.40
2022-08-03T00:02:59.192Z,1.30
2022-08-03T00:05:28.265Z,1.30
2022-08-03T00:07:55.729Z,1.40
2022-08-03T00:10:23.447Z,1.40
2022-08-03T00:12:50.943Z,1.50
2022-08-03T00:15:18.492Z,1.30
2022-08-03T00:17:52.322Z,1.50
2022-08-03T00:20:21.634Z,1.60
2022-08-03T00:22:51.331Z,1.40
2022-08-03T00:25:19.174Z,1.60
2022-08-03T00:27:48.277Z,1.57
2022-08-03T00:30:16.853Z,1.47
2022-08-03T00:32:45.582Z,1.50
2022-08-03T00:35:29.984Z,1.50
2022-08-03T00:38:02.497Z,1.30
2022-08-03T00:40:30.234Z,1.40
2022-08-03T00:42:59.707Z,1.47
2022-08-03T00:45:29.039Z,1.40
2022-08-03T00:47:57.925Z,1.50
2022-08-03T00:50:27.084Z,1.63
2022-08-03T00:52:57.126Z,1.50
2022-08-03T00:55:26.477Z,1.40
2022-08-03T00:57:54.156Z,1.43
2022-08-03T01:00:23.699Z,1.40
2022-08-03T01:02:52.403Z,1.50
2022-08-03T01:05:21.662Z,1.40
2022-08-03T01:08:01.444Z,1.40
2022-08-03T01:10:40.815Z,1.43
2022-08-03T01:14:00.893Z,1.53
2022-08-03T01:16:16.341Z,1.50
2022-08-03T01:18:48.358Z,1.57
2022-08-03T01:21:22.139Z,1.73
2022-08-03T01:24:04.830Z,1.83
2022-08-03T01:26:49.716Z,1.80
2022-08-03T01:29:43.892Z,1.70
2022-08-03T01:32:53.495Z,1.67
2022-08-03T01:35:07.499Z,1.67
2022-08-03T01:37:40.698Z,1.80
2022-08-03T01:40:11.711Z,1.70
2022-08-03T01:42:41.891Z,1.80
2022-08-03T01:45:13.615Z,1.70
2022-08-03T01:47:45.434Z,1.60
2022-08-03T01:50:14.367Z,1.80
2022-08-03T01:52:45.876Z,1.70
2022-08-03T01:55:14.574Z,1.60
2022-08-03T01:58:05.857Z,1.50
2022-08-03T02:00:33.635Z,1.60
2022-08-03T02:03:05.831Z,1.80
2022-08-03T02:05:35.035Z,1.67
2022-08-03T02:08:04.451Z,1.53
2022-08-03T02:10:34.831Z,1.77
2022-08-03T02:13:05.995Z,1.70
2022-08-03T02:15:34.724Z,1.53
2022-08-03T02:18:07.075Z,1.63
2022-08-03T02:20:36.366Z,1.63
2022-08-03T02:23:04.275Z,1.60
2022-08-03T02:25:34.293Z,1.60
2022-08-03T02:28:11.356Z,1.80
2022-08-03T02:30:41.804Z,1.70
2022-08-03T02:33:20.419Z,1.87
2022-08-03T02:35:50.257Z,1.57
2022-08-03T02:38:21.295Z,1.50
2022-08-03T02:40:52.073Z,1.70
2022-08-03T02:43:22.539Z,1.60
2022-08-03T02:45:52.385Z,1.60
2022-08-03T02:48:24.180Z,1.70
2022-08-03T02:50:55.076Z,1.80
2022-08-03T02:53:24.784Z,1.50
2022-08-03T02:55:53.346Z,1.50
2022-08-03T02:58:22.389Z,1.70
2022-08-03T03:00:52.251Z,1.50
2022-08-03T03:03:22.968Z,1.60
2022-08-03T03:05:57.870Z,1.53
2022-08-03T03:08:29.147Z,1.53
2022-08-03T03:10:59.100Z,1.63
2022-08-03T03:13:29.072Z,1.47
2022-08-03T03:15:58.314Z,1.60
2022-08-03T03:18:29.280Z,1.60
2022-08-03T03:20:58.621Z,1.50
2022-08-03T03:23:27.735Z,1.70
2022-08-03T03:25:56.434Z,1.50
2022-08-03T03:28:25.046Z,1.50
2022-08-03T03:30:53.412Z,1.60
2022-08-03T03:33:21.535Z,1.70
2022-08-03T03:35:51.551Z,1.60
2022-08-03T03:38:19.307Z,1.37
2022-08-03T03:40:47.274Z,1.63
2022-08-03T03:43:14.809Z,1.57
2022-08-03T03:45:43.004Z,1.57
2022-08-03T03:48:10.838Z,1.80
2022-08-03T03:50:40.747Z,1.70
2022-08-03T03:53:11.918Z,1.57
2022-08-03T03:56:01.862Z,1.60
2022-08-03T03:58:27.572Z,1.73
2022-08-03T04:00:55.147Z,1.70
2022-08-03T04:03:22.659Z,1.90
2022-08-03T04:06:08.135Z,1.83
2022-08-03T04:08:54.640Z,2.00
2022-08-03T04:11:29.105Z,1.77
2022-08-03T04:14:02.169Z,1.90
2022-08-03T04:16:33.374Z,1.83
2022-08-03T04:19:04.042Z,1.80
2022-08-03T04:21:34.211Z,1.90
2022-08-03T04:24:05.270Z,1.90
2022-08-03T04:26:37.085Z,1.80
2022-08-03T04:29:07.071Z,1.90
2022-08-03T04:31:36.430Z,1.60
2022-08-03T04:34:04.180Z,1.70
2022-08-03T04:36:40.979Z,1.80
2022-08-03T04:39:15.135Z,1.77
2022-08-03T04:42:04.453Z,1.93
2022-08-03T04:44:37.372Z,1.97
2022-08-03T04:47:05.056Z,2.10
2022-08-03T04:49:33.243Z,1.80
2022-08-03T04:52:01.118Z,1.97
2022-08-03T04:54:30.046Z,1.80
2022-08-03T04:56:57.609Z,1.90
2022-08-03T04:59:25.115Z,1.70
2022-08-03T05:01:52.907Z,1.80
2022-08-03T05:04:20.488Z,2.00
2022-08-03T05:06:54.968Z,1.90
2022-08-03T05:09:50.129Z,1.90
2022-08-03T05:12:12.610Z,2.00
2022-08-03T05:14:40.105Z,1.90
2022-08-03T05:17:08.120Z,1.83
2022-08-03T05:19:36.041Z,2.27
2022-08-03T05:22:04.064Z,2.00
2022-08-03T05:24:31.629Z,2.20
2022-08-03T05:26:59.078Z,2.00
2022-08-03T05:29:27.901Z,2.10
2022-08-03T05:31:55.468Z,2.20
2022-08-03T05:34:22.968Z,2.03
2022-08-03T05:36:50.431Z,1.80
2022-08-03T05:39:17.913Z,2.27
2022-08-03T05:41:45.382Z,2.10
2022-08-03T05:44:12.851Z,2.50
2022-08-03T05:46:41.694Z,2.40
2022-08-03T05:49:09.308Z,2.50
2022-08-03T05:51:37.092Z,2.30
2022-08-03T05:54:04.698Z,2.27
2022-08-03T05:56:32.335Z,2.03
2022-08-03T05:59:07.365Z,2.33
2022-08-03T06:01:48.879Z,2.20
2022-08-03T06:04:16.442Z,2.10
2022-08-03T06:06:44.099Z,1.80
2022-08-03T06:09:11.787Z,2.20
2022-08-03T06:11:40.319Z,2.10
2022-08-03T06:14:07.878Z,2.17
2022-08-03T06:16:35.389Z,2.50
2022-08-03T06:19:04.447Z,2.30
2022-08-03T06:21:31.904Z,2.40
2022-08-03T06:23:59.399Z,2.30
2022-08-03T06:26:30.078Z,2.33
2022-08-03T06:28:57.634Z,2.37
2022-08-03T06:31:32.916Z,2.43
2022-08-03T06:34:33.975Z,2.40
2022-08-03T06:36:51.096Z,2.35
2022-08-03T06:39:19.823Z,2.40
2022-08-03T06:41:47.323Z,2.25
2022-08-03T06:44:15.037Z,2.20
2022-08-03T06:46:43.302Z,2.30
2022-08-03T06:49:10.896Z,2.20
2022-08-03T06:52:05.801Z,2.17
2022-08-03T06:54:28.055Z,2.10
2022-08-03T06:56:55.550Z,2.10
2022-08-03T07:00:09.728Z,1.85
2022-08-03T07:02:11.439Z,2.08
2022-08-03T07:04:39.015Z,1.95
2022-08-03T07:07:06.510Z,2.00
2022-08-03T07:09:35.362Z,2.22
2022-08-03T07:12:04.190Z,1.80
2022-08-03T07:14:31.654Z,1.65
2022-08-03T07:16:59.154Z,2.00
2022-08-03T07:19:26.770Z,1.80
2022-08-03T07:21:54.304Z,1.92
2022-08-03T07:24:25.782Z,1.88
2022-08-03T07:26:57.314Z,1.65
2022-08-03T07:29:24.963Z,1.88
2022-08-03T07:31:52.510Z,2.00
2022-08-03T07:34:19.987Z,1.95
2022-08-03T07:36:47.659Z,1.92
2022-08-03T07:39:17.746Z,1.90
2022-08-03T07:41:46.026Z,2.10
2022-08-03T07:44:14.901Z,2.10
2022-08-03T07:46:42.480Z,2.00
2022-08-03T07:49:10.064Z,2.05
2022-08-03T07:51:37.812Z,2.85
2022-08-03T07:54:05.818Z,2.13
2022-08-03T07:56:33.371Z,1.80
2022-08-03T07:59:02.462Z,1.90
2022-08-03T08:01:33.987Z,1.90
2022-08-03T08:04:01.567Z,1.90
2022-08-03T08:06:29.047Z,1.90
2022-08-03T08:08:59.544Z,2.03
2022-08-03T08:11:27.097Z,1.77
2022-08-03T08:13:54.558Z,2.00
2022-08-03T08:16:22.108Z,1.85
2022-08-03T08:18:51.011Z,1.90
2022-08-03T08:21:18.486Z,1.90
2022-08-03T08:23:55.620Z,1.75
2022-08-03T08:26:25.304Z,1.80
2022-08-03T08:28:53.363Z,1.58
2022-08-03T08:31:21.034Z,1.73
2022-08-03T08:34:03.598Z,1.70
2022-08-03T08:36:33.872Z,1.50
2022-08-03T08:39:01.838Z,1.40
2022-08-03T08:41:32.169Z,1.70
2022-08-03T08:44:00.374Z,1.60
2022-08-03T08:46:28.370Z,1.52
2022-08-03T08:48:56.632Z,1.83
2022-08-03T08:51:54.475Z,1.80
2022-08-03T08:54:22.650Z,1.42
2022-08-03T08:56:52.247Z,1.70
2022-08-03T08:59:20.684Z,1.60
2022-08-03T09:01:48.246Z,1.58
2022-08-03T09:04:15.914Z,1.70
2022-08-03T09:06:53.900Z,1.65
2022-08-03T09:10:10.131Z,1.63
2022-08-03T09:12:40.839Z,1.70
2022-08-03T09:15:19.015Z,1.50
2022-08-03T09:17:50.854Z,1.80
2022-08-03T09:20:20.009Z,1.50
2022-08-03T09:22:54.471Z,1.40
2022-08-03T09:25:29.035Z,1.40
2022-08-03T09:28:04.754Z,1.50
2022-08-03T09:30:34.135Z,1.50
2022-08-03T09:33:03.767Z,1.60
2022-08-03T09:38:23.956Z,1.60
2022-08-03T09:40:58.875Z,1.58
2022-08-03T09:43:27.551Z,1.40
2022-08-03T09:46:03.901Z,1.70
2022-08-03T09:48:34.628Z,1.42
2022-08-03T09:51:13.123Z,1.40
2022-08-03T09:53:58.933Z,1.33
2022-08-03T09:56:40.911Z,1.48
2022-08-03T09:59:08.999Z,1.42
2022-08-03T10:01:38.759Z,1.30
2022-08-03T10:04:06.343Z,1.58
2022-08-03T10:06:33.855Z,1.40
2022-08-03T10:09:10.105Z,1.35
2022-08-03T10:11:42.080Z,1.50
2022-08-03T10:14:11.445Z,1.40
2022-08-03T10:16:40.440Z,1.40
2022-08-03T10:19:09.694Z,1.30
2022-08-03T10:21:39.851Z,1.25
2022-08-03T10:24:10.577Z,1.30
2022-08-03T10:26:49.861Z,1.50
2022-08-03T10:29:24.534Z,1.42
2022-08-03T10:31:58.448Z,1.33
2022-08-03T10:34:29.891Z,1.42
2022-08-03T10:36:59.744Z,1.50
2022-08-03T10:39:30.575Z,1.45
2022-08-03T10:42:00.144Z,1.38
2022-08-03T10:44:34.799Z,1.38
2022-08-03T10:47:02.430Z,1.40
2022-08-03T10:49:34.788Z,1.50
2022-08-03T10:52:13.331Z,1.38
2022-08-03T10:55:10.802Z,1.48
2022-08-03T10:57:52.618Z,1.30
2022-08-03T11:00:28.366Z,1.20
2022-08-03T11:03:08.508Z,1.48
2022-08-03T11:05:41.885Z,1.30
2022-08-03T11:08:27.774Z,1.35
2022-08-03T11:10:57.182Z,1.38
2022-08-03T11:13:28.264Z,1.38
2022-08-03T11:16:01.606Z,1.30
2022-08-03T11:18:30.671Z,1.30
2022-08-03T11:20:59.778Z,1.55
2022-08-03T11:24:03.338Z,1.50
2022-08-03T11:26:32.943Z,1.40
2022-08-03T11:29:30.516Z,1.50
2022-08-03T11:31:59.677Z,1.20
2022-08-03T11:34:27.465Z,1.33
2022-08-03T11:37:22.312Z,1.35
2022-08-03T11:39:56.823Z,1.58
2022-08-03T11:42:47.915Z,1.50
2022-08-03T11:45:15.950Z,1.15
2022-08-03T11:47:50.277Z,1.30
2022-08-03T11:50:19.766Z,1.42
2022-08-03T11:52:47.791Z,1.17
2022-08-03T11:55:18.638Z,1.30
2022-08-03T11:58:58.248Z,1.20
2022-08-03T12:00:34.681Z,1.20
2022-08-03T12:03:06.870Z,1.23
2022-08-03T12:05:39.502Z,1.20
2022-08-03T12:08:08.191Z,1.30
2022-08-03T12:10:36.400Z,1.33
2022-08-03T12:14:26.938Z,1.33
2022-08-03T12:15:59.018Z,1.58
2022-08-03T12:18:27.855Z,1.40
2022-08-03T12:21:05.970Z,1.42
2022-08-03T12:23:37.555Z,1.30
2022-08-03T12:26:08.379Z,1.38
2022-08-03T12:28:38.331Z,1.10
2022-08-03T12:31:09.149Z,1.30
2022-08-03T12:34:01.747Z,1.30
2022-08-03T12:36:30.823Z,1.40
2022-08-03T12:39:00.770Z,1.50
2022-08-03T12:41:29.975Z,1.38
2022-08-03T12:43:58.144Z,1.45
2022-08-03T12:46:31.274Z,1.42
2022-08-03T12:49:02.635Z,1.27
2022-08-03T12:51:32.803Z,1.30
2022-08-03T12:54:00.560Z,1.30
2022-08-03T12:56:28.480Z,1.00
2022-08-03T12:58:56.073Z,1.45
2022-08-03T13:01:26.016Z,1.40
2022-08-03T13:03:54.262Z,1.20
2022-08-03T13:06:26.341Z,1.40
2022-08-03T13:09:05.595Z,1.30
2022-08-03T13:11:55.467Z,1.50
2022-08-03T13:14:21.219Z,1.30
2022-08-03T13:16:49.501Z,1.20
2022-08-03T13:19:17.082Z,1.23
2022-08-03T13:22:01.953Z,1.33
2022-08-03T13:24:34.018Z,1.50
2022-08-03T13:27:22.087Z,1.60
2022-08-03T13:29:49.814Z,1.50
2022-08-03T13:32:17.389Z,1.50
2022-08-03T13:34:45.040Z,1.45
2022-08-03T13:37:14.463Z,1.40
2022-08-03T13:39:59.922Z,1.63
2022-08-03T13:42:30.210Z,1.75
2022-08-03T13:44:57.725Z,1.40
2022-08-03T13:47:25.328Z,1.48
2022-08-03T13:50:00.093Z,1.50
2022-08-03T13:52:31.721Z,1.42
2022-08-03T13:54:59.767Z,1.33
2022-08-03T13:58:02.452Z,1.52
2022-08-03T14:00:26.513Z,1.45
2022-08-03T14:03:02.716Z,1.30
2022-08-03T14:05:32.570Z,1.30
2022-08-03T14:08:04.643Z,1.50
2022-08-03T14:10:33.458Z,1.40
2022-08-03T14:13:01.183Z,1.50
2022-08-03T14:15:28.968Z,1.40
2022-08-03T14:17:58.778Z,1.60
2022-08-03T14:20:37.268Z,1.48
2022-08-03T14:23:15.672Z,1.45
2022-08-03T14:25:51.993Z,1.50
2022-08-03T14:28:22.175Z,1.48
2022-08-03T14:30:49.851Z,1.45
2022-08-03T14:33:17.506Z,1.55
2022-08-03T14:35:45.040Z,1.40
2022-08-03T14:38:12.534Z,1.38
2022-08-03T14:40:42.694Z,1.40
2022-08-03T14:43:10.300Z,1.55
2022-08-03T14:45:37.962Z,1.30
2022-08-03T14:50:34.713Z,1.35
2022-08-03T14:50:55.073Z,1.50
2022-08-03T14:53:22.591Z,1.35
2022-08-03T14:55:52.807Z,1.40
2022-08-03T14:58:21.877Z,1.20
2022-08-03T15:00:50.658Z,1.40
2022-08-03T15:03:20.264Z,1.40
2022-08-03T15:05:48.076Z,1.50
2022-08-03T15:08:15.650Z,1.77
2022-08-03T15:10:44.453Z,1.50
2022-08-03T15:13:14.495Z,1.30
2022-08-03T15:15:42.646Z,1.60
2022-08-03T15:18:10.303Z,1.40
2022-08-03T15:20:46.705Z,1.35
2022-08-03T15:23:16.090Z,1.40
2022-08-03T15:26:28.842Z,1.50
2022-08-03T15:28:33.688Z,1.20
2022-08-03T15:31:01.319Z,1.27
2022-08-03T15:33:29.091Z,1.23
2022-08-03T15:35:57.583Z,1.23
2022-08-03T15:38:26.217Z,1.30
2022-08-03T15:40:54.339Z,1.20
2022-08-03T15:43:22.282Z,1.30
2022-08-03T15:46:18.972Z,1.30
2022-08-03T15:48:39.179Z,1.25
2022-08-03T15:51:07.509Z,1.20
2022-08-03T15:53:35.653Z,1.30
2022-08-03T15:56:09.700Z,1.10
2022-08-03T15:59:09.395Z,1.27
2022-08-03T16:01:27.809Z,1.20
2022-08-03T16:03:55.374Z,1.10
2022-08-03T16:06:34.908Z,1.27
2022-08-03T16:09:04.757Z,1.10
2022-08-03T16:11:32.275Z,1.13
2022-08-03T16:14:13.851Z,0.90
2022-08-03T16:16:48.922Z,1.13
2022-08-03T16:19:16.739Z,1.10
2022-08-03T16:21:48.192Z,1.00
2022-08-03T16:24:17.286Z,1.10
2022-08-03T16:26:47.770Z,1.10
2022-08-03T16:29:23.290Z,1.10
2022-08-03T16:31:53.234Z,1.00
2022-08-03T16:34:21.417Z,1.20
2022-08-03T16:36:49.043Z,1.10
2022-08-03T16:39:16.788Z,1.10
2022-08-03T16:41:54.030Z,1.45
2022-08-03T16:44:29.590Z,0.90
2022-08-03T16:46:58.839Z,0.90
2022-08-03T16:49:54.686Z,1.00
2022-08-03T16:52:14.034Z,0.88
2022-08-03T16:54:44.626Z,1.00
2022-08-03T16:57:55.999Z,1.00
2022-08-03T17:00:11.983Z,1.20
2022-08-03T17:02:48.081Z,1.30
2022-08-03T17:05:16.049Z,1.10
2022-08-03T17:07:47.021Z,1.10
2022-08-03T17:10:21.954Z,1.00
2022-08-03T17:12:55.242Z,1.10
2022-08-03T17:15:57.378Z,1.10
2022-08-03T17:18:17.615Z,1.48
2022-08-03T17:20:47.876Z,1.10
2022-08-03T17:23:35.435Z,1.00
2022-08-03T17:26:10.616Z,1.00
2022-08-03T17:28:52.171Z,1.10
2022-08-03T17:31:30.822Z,0.90
2022-08-03T17:34:04.535Z,1.10
2022-08-03T17:37:02.093Z,1.00
2022-08-03T17:39:35.834Z,1.00
2022-08-03T17:42:30.698Z,1.20
2022-08-03T17:44:58.131Z,1.00
2022-08-03T17:47:29.275Z,1.00
2022-08-03T17:50:24.649Z,1.02
2022-08-03T17:53:07.948Z,1.08
2022-08-03T17:55:58.378Z,1.00
2022-08-03T17:58:52.572Z,1.10
2022-08-03T18:01:59.587Z,1.00
2022-08-03T18:04:32.221Z,1.10
2022-08-03T18:07:11.777Z,1.10
2022-08-03T18:10:04.143Z,1.15
2022-08-03T18:12:44.744Z,1.10
2022-08-03T18:15:20.986Z,1.10
2022-08-03T18:18:01.722Z,1.10
2022-08-03T18:23:25.185Z,1.25
2022-08-03T18:26:12.071Z,1.30
2022-08-03T18:28:40.707Z,1.42
2022-08-03T18:31:12.633Z,1.50
2022-08-03T18:34:18.877Z,1.58
2022-08-03T18:36:31.785Z,1.60
2022-08-03T18:39:02.901Z,1.30
2022-08-03T18:41:49.771Z,1.38
2022-08-03T18:44:37.746Z,1.80
2022-08-03T18:47:18.290Z,1.30
2022-08-03T18:50:01.489Z,1.23
2022-08-03T18:52:37.309Z,1.13
2022-08-03T18:55:19.702Z,1.05
2022-08-03T18:57:53.110Z,1.00
2022-08-03T19:00:24.279Z,1.00
2022-08-03T19:02:58.694Z,1.40
2022-08-03T19:05:52.910Z,1.42
2022-08-03T19:08:18.418Z,1.20
2022-08-03T19:10:57.914Z,1.10
2022-08-03T19:13:36.478Z,1.10
2022-08-03T19:16:09.959Z,1.20
2022-08-03T19:18:41.706Z,1.00
2022-08-03T19:21:15.686Z,1.10
2022-08-03T19:23:45.872Z,1.10
2022-08-03T19:26:29.930Z,1.20
2022-08-03T19:28:59.684Z,1.10
2022-08-03T19:31:31.131Z,1.10
2022-08-03T19:34:03.516Z,0.90
2022-08-03T19:36:32.733Z,1.10
2022-08-03T19:39:00.409Z,1.20
2022-08-03T19:44:27.122Z,1.10
2022-08-03T19:47:02.303Z,1.20
2022-08-03T19:50:05.039Z,1.08
2022-08-03T19:52:31.185Z,1.00
2022-08-03T19:55:02.142Z,1.20
2022-08-03T19:57:34.253Z,1.10
2022-08-03T20:00:03.377Z,1.20
2022-08-03T20:02:33.031Z,1.10
2022-08-03T20:05:01.253Z,1.20
2022-08-03T20:07:30.981Z,1.30
2022-08-03T20:09:59.505Z,1.20
2022-08-03T20:12:32.137Z,1.13
2022-08-03T20:15:05.662Z,1.00
2022-08-03T20:17:56.469Z,1.33
2022-08-03T20:20:23.506Z,1.10
2022-08-03T20:22:54.438Z,1.00
2022-08-03T20:25:38.395Z,1.20
2022-08-03T20:28:13.833Z,1.13
2022-08-03T20:30:46.366Z,1.15
2022-08-03T20:33:18.229Z,1.20
2022-08-03T20:35:49.265Z,1.10
2022-08-03T20:38:17.412Z,1.73
2022-08-03T20:40:46.100Z,1.30
2022-08-03T20:43:14.163Z,1.20
2022-08-03T20:45:59.990Z,1.50
2022-08-03T20:48:31.779Z,1.20
2022-08-03T20:50:59.426Z,1.02
2022-08-03T20:53:57.403Z,1.15
2022-08-03T20:56:16.133Z,1.30
2022-08-03T20:58:50.589Z,1.20
2022-08-03T21:01:27.651Z,1.20
2022-08-03T21:03:55.887Z,1.33
2022-08-03T21:06:27.358Z,1.13
2022-08-03T21:09:04.088Z,1.35
2022-08-03T21:11:41.646Z,1.00
2022-08-03T21:12:57.650Z,1.35
2022-08-03T21:13:02.695Z,1.20
2022-08-03T21:14:16.166Z,1.10
2022-08-03T21:16:46.378Z,1.23
2022-08-03T21:19:15.376Z,1.30
2022-08-03T21:21:45.391Z,1.40
2022-08-03T21:24:14.514Z,1.20
2022-08-03T21:26:43.419Z,1.40
2022-08-03T21:29:13.967Z,1.42
2022-08-03T21:31:41.643Z,1.40
2022-08-03T21:34:10.467Z,1.48
2022-08-03T21:36:38.409Z,1.30
2022-08-03T21:39:08.498Z,1.25
2022-08-03T21:41:37.478Z,1.30
2022-08-03T21:44:06.739Z,1.30
2022-08-03T21:46:37.564Z,1.30
2022-08-03T21:50:07.081Z,1.50
2022-08-03T21:51:58.949Z,1.33
2022-08-03T21:54:32.539Z,1.25
2022-08-03T21:57:04.644Z,1.42
2022-08-03T21:59:36.018Z,1.40
2022-08-03T22:02:04.029Z,1.40
2022-08-03T22:04:50.411Z,1.60
2022-08-03T22:07:23.643Z,1.48
2022-08-03T22:09:52.297Z,1.30
2022-08-03T22:12:22.555Z,1.40
2022-08-03T22:14:50.367Z,1.33
2022-08-03T22:17:55.296Z,1.60
2022-08-03T22:20:19.151Z,1.48
2022-08-03T22:22:53.625Z,1.35
2022-08-03T22:25:27.100Z,1.50
2022-08-03T22:27:55.144Z,1.50
2022-08-03T22:30:22.879Z,1.35
2022-08-03T22:32:52.367Z,1.40
2022-08-03T22:35:22.170Z,1.40
2022-08-03T22:37:54.669Z,1.55
2022-08-03T22:40:22.322Z,1.50
2022-08-03T22:42:52.344Z,1.60
2022-08-03T22:46:07.979Z,1.58
2022-08-03T22:48:08.918Z,1.70
2022-08-03T22:50:36.703Z,1.40
2022-08-03T22:53:07.721Z,1.50
2022-08-03T22:55:35.399Z,1.50
2022-08-03T22:58:03.263Z,1.50
2022-08-03T23:00:30.940Z,1.60
2022-08-03T23:03:02.950Z,1.60
2022-08-03T23:06:00.517Z,1.55
2022-08-03T23:08:25.636Z,1.40
2022-08-03T23:10:54.642Z,1.40
2022-08-03T23:13:25.767Z,1.40
2022-08-03T23:15:57.407Z,1.60
2022-08-03T23:18:28.903Z,1.40
2022-08-03T23:21:01.295Z,1.30
2022-08-03T23:23:44.531Z,1.38
2022-08-03T23:26:13.600Z,1.40
2022-08-03T23:28:46.063Z,1.45
2022-08-03T23:31:15.454Z,1.45
2022-08-03T23:33:45.835Z,1.30
2022-08-03T23:36:30.494Z,1.40
2022-08-03T23:39:03.128Z,1.38
2022-08-03T23:41:31.207Z,1.30
2022-08-03T23:44:01.730Z,1.48
2022-08-03T23:46:31.709Z,1.40
2022-08-03T23:48:59.957Z,1.40
2022-08-03T23:51:39.890Z,1.20
2022-08-03T23:54:16.667Z,1.60
2022-08-03T23:56:54.846Z,1.38
2022-08-03T23:59:33.142Z,1.30
